Arlington, Oregon
Current Conditions -  °F | °C
As of 3:53 AM on Thursday 23 Oct 2014 (Local Time) from KHRI Reporting Station
Light Rain Light Rain  
Wind Chill: 57°   Ceiling: 7000
Heat Index: 57°   Visibility: 10mi
Dew Point: 53°   Wind: 3mph
Humidity: 87%   Direction: 160°SSE
Pressure: 29.78"   Gusts: NA
Location:  45.72°N, 120.2°W
Report Text: KHRI 231053Z AUTO 16003KT 10SM -RA OVC070 14/12 A2978 RMK AO2 SLP082 P0001 T01390117
Loading
Personal Weather Stations






























Interactive Weather Map
Tropical Storm Tracking
New forecast layout! Learn more

10-Day Weather Forecast

Advertisements
Track Severe Weather on mobile